Open Full Screen Window  High Contrast Mode
Wind Gusting 00 knots
06
October 25, 2014 8:20 AM CDT
Weather Information
Wind Direction
  330 °
Wind Speed
  06 kt (7 mph)
Wind Gust
  00 kt (0 mph)
Altimeter
30.12 in
Visibility
10 SM
Temperature
04° C
39° F
Dewpoint
02° C
36° F
Humidity
87%
1hr Rain Fall
00.00 in.
24hr Rain Fall
00.00 in.
Sky Condition
Clear
VFR

METAR KMDS 251320Z AUTO 33006KT 10SM CLR 04/02 A3012 RMK AO2

*Background is not an actual portrayal of the airport.